createdAt,value
2023-04-17T00:02:12.876Z,79.59
2023-04-17T00:06:36.761Z,79.69
2023-04-17T00:11:08.032Z,79.71
2023-04-17T00:15:45.883Z,79.66
2023-04-17T00:20:09.735Z,79.89
2023-04-17T00:24:33.613Z,79.72
2023-04-17T00:28:57.450Z,79.76
2023-04-17T00:33:21.237Z,80.15
2023-04-17T00:37:45.120Z,80.08
2023-04-17T00:42:01.510Z,79.98
2023-04-17T00:46:25.429Z,80.13
2023-04-17T00:50:49.339Z,80.21
2023-04-17T00:55:13.211Z,80.27
2023-04-17T00:59:37.069Z,80.05
2023-04-17T01:03:00.461Z,80.46
2023-04-17T01:06:03.750Z,80.42
2023-04-17T01:09:07.083Z,80.59
2023-04-17T01:12:24.421Z,80.50
2023-04-17T01:15:27.162Z,80.85
2023-04-17T01:18:30.017Z,80.86
2023-04-17T01:21:32.884Z,80.74
2023-04-17T01:24:36.990Z,80.88
2023-04-17T01:27:40.053Z,81.00
2023-04-17T01:30:44.229Z,81.06
2023-04-17T01:33:48.671Z,81.10
2023-04-17T01:36:51.740Z,81.33
2023-04-17T01:39:55.892Z,81.43
2023-04-17T01:42:59.299Z,81.33
2023-04-17T01:46:02.103Z,81.38
2023-04-17T01:49:05.304Z,81.69
2023-04-17T01:52:08.113Z,81.73
2023-04-17T01:55:11.137Z,81.86
2023-04-17T01:58:13.847Z,82.08
2023-04-17T02:01:16.648Z,82.10
2023-04-17T02:04:19.745Z,82.17
2023-04-17T02:07:22.834Z,82.18
2023-04-17T02:10:25.705Z,82.41
2023-04-17T02:13:28.448Z,82.51
2023-04-17T02:16:32.882Z,82.63
2023-04-17T02:19:35.701Z,82.59
2023-04-17T02:22:38.749Z,82.78
2023-04-17T02:25:41.516Z,82.71
2023-04-17T02:28:47.856Z,82.73
2023-04-17T02:31:50.748Z,82.59
2023-04-17T02:34:54.383Z,82.76
2023-04-17T02:37:57.600Z,82.89
2023-04-17T02:41:00.736Z,82.86
2023-04-17T02:44:05.496Z,82.79
2023-04-17T02:47:08.925Z,82.86
2023-04-17T02:50:12.217Z,83.11
2023-04-17T02:53:26.148Z,83.06
2023-04-17T02:56:29.136Z,83.26
2023-04-17T02:59:31.928Z,83.23
2023-04-17T03:02:35.009Z,83.43
2023-04-17T03:05:37.964Z,83.42
2023-04-17T03:08:41.761Z,83.37
2023-04-17T03:11:44.885Z,83.55
2023-04-17T03:14:47.783Z,83.66
2023-04-17T03:17:50.859Z,83.64
2023-04-17T03:20:54.268Z,83.72
2023-04-17T03:23:57.576Z,83.72
2023-04-17T03:27:02.362Z,83.91
2023-04-17T03:30:12.264Z,83.84
2023-04-17T03:33:17.663Z,83.96
2023-04-17T03:36:20.738Z,84.23
2023-04-17T03:39:23.450Z,84.25
2023-04-17T03:42:27.450Z,84.40
2023-04-17T03:45:30.315Z,84.36
2023-04-17T03:48:33.286Z,84.40
2023-04-17T03:51:36.140Z,84.53
2023-04-17T03:54:46.532Z,84.55
2023-04-17T03:57:51.654Z,84.72
2023-04-17T04:00:55.706Z,84.76
2023-04-17T04:04:01.817Z,84.60
2023-04-17T04:07:05.117Z,84.63
2023-04-17T04:10:09.363Z,84.73
2023-04-17T04:13:15.769Z,84.80
2023-04-17T04:16:21.583Z,84.89
2023-04-17T04:19:25.350Z,84.89
2023-04-17T04:22:29.619Z,85.00
2023-04-17T04:25:34.193Z,84.96
2023-04-17T04:28:50.064Z,84.94
2023-04-17T04:31:57.730Z,85.17
2023-04-17T04:35:02.358Z,85.16
2023-04-17T04:38:05.244Z,85.22
2023-04-17T04:41:10.626Z,85.20
2023-04-17T04:44:14.889Z,84.99
2023-04-17T04:47:20.063Z,84.87
2023-04-17T04:50:24.005Z,84.95
2023-04-17T04:53:27.053Z,85.16
2023-04-17T04:56:33.273Z,85.13
2023-04-17T04:59:38.869Z,85.31
2023-04-17T05:03:08.393Z,85.29
2023-04-17T05:06:13.726Z,85.24
2023-04-17T05:09:21.102Z,85.08
2023-04-17T05:12:24.456Z,85.29
2023-04-17T05:15:27.964Z,85.33
2023-04-17T05:18:31.446Z,85.40
2023-04-17T05:21:34.534Z,86.37
2023-04-17T05:24:37.802Z,85.83
2023-04-17T05:27:41.084Z,85.80
2023-04-17T05:30:45.329Z,85.81
2023-04-17T05:33:53.470Z,85.78
2023-04-17T05:36:56.193Z,85.63
2023-04-17T05:40:01.343Z,85.91
2023-04-17T05:43:12.060Z,86.03
2023-04-17T05:46:15.543Z,86.23
2023-04-17T05:49:19.275Z,86.35
2023-04-17T05:52:22.058Z,86.33
2023-04-17T05:55:24.854Z,86.59
2023-04-17T05:58:30.467Z,86.59
2023-04-17T06:01:34.026Z,86.71
2023-04-17T06:04:37.102Z,86.70
2023-04-17T06:07:41.436Z,86.81
2023-04-17T06:10:45.891Z,86.76
2023-04-17T06:13:48.814Z,87.00
2023-04-17T06:16:52.685Z,87.26
2023-04-17T06:19:55.744Z,87.43
2023-04-17T06:22:58.526Z,87.63
2023-04-17T06:26:01.367Z,87.78
2023-04-17T06:29:04.957Z,87.91
2023-04-17T06:32:08.658Z,88.16
2023-04-17T06:35:12.833Z,87.94
2023-04-17T06:38:20.635Z,88.01
2023-04-17T06:41:23.511Z,87.82
2023-04-17T06:44:26.336Z,87.75
2023-04-17T06:47:30.732Z,87.46
2023-04-17T06:50:33.550Z,87.49
2023-04-17T06:53:36.409Z,87.62
2023-04-17T06:56:40.920Z,87.20
2023-04-17T06:59:44.671Z,87.41
2023-04-17T07:02:47.506Z,87.22
2023-04-17T07:05:50.733Z,87.01
2023-04-17T07:08:55.539Z,87.08
2023-04-17T07:11:58.578Z,87.50
2023-04-17T07:15:01.486Z,87.12
2023-04-17T07:18:04.367Z,86.72
2023-04-17T07:21:07.246Z,86.55
2023-04-17T07:24:10.113Z,86.68
2023-04-17T07:27:12.829Z,86.93
2023-04-17T07:30:15.805Z,86.97
2023-04-17T07:33:18.590Z,87.23
2023-04-17T07:36:21.385Z,87.25
2023-04-17T07:39:26.907Z,87.04
2023-04-17T07:42:29.622Z,87.23
2023-04-17T07:45:33.780Z,86.82
2023-04-17T07:48:36.523Z,87.20
2023-04-17T07:51:41.471Z,87.38
2023-04-17T07:54:44.892Z,87.24
2023-04-17T07:57:50.164Z,86.66
2023-04-17T08:00:53.284Z,86.56
2023-04-17T08:03:56.295Z,86.40
2023-04-17T08:06:59.879Z,86.20
2023-04-17T08:10:03.751Z,85.43
2023-04-17T08:13:06.809Z,84.94
2023-04-17T08:16:10.174Z,85.07
2023-04-17T08:19:13.933Z,84.96
2023-04-17T08:22:17.250Z,84.81
2023-04-17T08:25:20.078Z,84.59
2023-04-17T08:28:22.845Z,84.71
2023-04-17T08:31:26.773Z,85.01
2023-04-17T08:34:31.595Z,83.63
2023-04-17T08:37:36.106Z,83.46
2023-04-17T08:40:42.054Z,82.77
2023-04-17T08:43:51.160Z,81.88
2023-04-17T08:46:58.220Z,82.39
2023-04-17T08:50:08.958Z,82.85
2023-04-17T08:53:11.683Z,82.92
2023-04-17T08:56:14.557Z,81.03
2023-04-17T08:59:18.012Z,80.93
2023-04-17T09:02:21.281Z,80.30
2023-04-17T09:05:26.088Z,80.72
2023-04-17T09:08:29.428Z,80.82
2023-04-17T09:11:32.155Z,80.05
2023-04-17T09:14:35.252Z,79.98
2023-04-17T09:17:38.124Z,79.87
2023-04-17T09:20:51.351Z,80.08
2023-04-17T09:23:59.015Z,79.94
2023-04-17T09:27:24.405Z,80.16
2023-04-17T09:30:27.550Z,79.53
2023-04-17T09:33:30.488Z,78.43
2023-04-17T09:36:36.849Z,78.09
2023-04-17T09:39:55.308Z,77.53
2023-04-17T09:43:01.655Z,77.90
2023-04-17T09:46:04.883Z,77.06
2023-04-17T09:49:24.597Z,77.12
2023-04-17T09:52:28.791Z,76.84
2023-04-17T09:55:33.387Z,77.16
2023-04-17T09:58:37.983Z,76.89
2023-04-17T10:01:42.480Z,76.83
2023-04-17T10:04:47.044Z,77.06
2023-04-17T10:07:50.604Z,76.98
2023-04-17T10:10:53.929Z,76.69
2023-04-17T10:14:11.462Z,76.47
2023-04-17T10:17:31.459Z,76.67
2023-04-17T10:20:35.993Z,76.43
2023-04-17T10:23:40.060Z,75.98
2023-04-17T10:26:42.855Z,75.81
2023-04-17T10:30:02.637Z,76.00
2023-04-17T10:33:20.671Z,76.16
2023-04-17T10:36:38.806Z,76.06
2023-04-17T10:40:02.303Z,76.22
2023-04-17T10:43:14.648Z,76.39
2023-04-17T10:46:17.428Z,76.24
2023-04-17T10:49:23.417Z,75.70
2023-04-17T10:52:32.358Z,76.22
2023-04-17T10:55:49.502Z,75.83
2023-04-17T10:58:55.934Z,76.28
2023-04-17T11:02:01.669Z,76.54
2023-04-17T11:05:10.454Z,76.61
2023-04-17T11:08:14.049Z,77.02
2023-04-17T11:11:23.527Z,77.48
2023-04-17T11:14:33.623Z,77.83
2023-04-17T11:17:40.074Z,77.92
2023-04-17T11:20:42.909Z,78.18
2023-04-17T11:23:55.187Z,78.61
2023-04-17T11:27:00.654Z,78.62
2023-04-17T11:30:03.724Z,79.12
2023-04-17T11:33:08.472Z,79.59
2023-04-17T11:36:11.566Z,80.13
2023-04-17T11:39:15.826Z,80.37
2023-04-17T11:42:27.752Z,80.57
2023-04-17T11:45:35.772Z,81.16
2023-04-17T11:48:38.689Z,81.01
2023-04-17T11:51:46.374Z,81.29
2023-04-17T11:54:58.119Z,81.43
2023-04-17T11:58:04.278Z,81.85
2023-04-17T12:01:07.171Z,82.07
2023-04-17T12:04:20.846Z,82.20
2023-04-17T12:07:24.964Z,82.79
2023-04-17T12:10:42.084Z,82.72
2023-04-17T12:13:44.878Z,82.65
2023-04-17T12:16:50.413Z,82.84
2023-04-17T12:19:53.706Z,82.98
2023-04-17T12:22:56.433Z,82.70
2023-04-17T12:25:59.177Z,82.53
2023-04-17T12:29:02.017Z,82.84
2023-04-17T12:32:05.015Z,82.85
2023-04-17T12:35:08.450Z,82.32
2023-04-17T12:38:11.208Z,81.84
2023-04-17T12:41:14.002Z,81.36
2023-04-17T12:44:16.925Z,80.97
2023-04-17T12:47:19.933Z,80.98
2023-04-17T12:50:22.889Z,81.09
2023-04-17T12:53:25.668Z,80.39
2023-04-17T12:56:28.879Z,80.66
2023-04-17T12:59:31.853Z,80.80
2023-04-17T13:02:35.551Z,80.16
2023-04-17T13:05:38.708Z,80.16
2023-04-17T13:08:41.479Z,80.63
2023-04-17T13:11:44.310Z,80.43
2023-04-17T13:14:47.227Z,79.71
2023-04-17T13:17:51.029Z,79.04
2023-04-17T13:20:53.814Z,78.56
2023-04-17T13:23:56.578Z,78.91
2023-04-17T13:26:59.580Z,79.07
2023-04-17T13:30:02.346Z,78.55
2023-04-17T13:33:05.199Z,76.96
2023-04-17T13:36:08.344Z,76.94
2023-04-17T13:39:11.955Z,76.84
2023-04-17T13:42:16.865Z,76.49
2023-04-17T13:45:19.710Z,76.55
2023-04-17T13:48:22.504Z,75.58
2023-04-17T13:51:26.974Z,75.88
2023-04-17T13:54:29.856Z,76.15
2023-04-17T13:57:32.574Z,75.88
2023-04-17T14:00:35.449Z,75.29
2023-04-17T14:03:40.716Z,74.65
2023-04-17T14:06:47.147Z,75.05
2023-04-17T14:09:49.948Z,75.23
2023-04-17T14:12:52.692Z,74.99
2023-04-17T14:15:55.951Z,74.97
2023-04-17T14:19:03.839Z,74.37
2023-04-17T14:22:16.289Z,74.69
2023-04-17T14:25:19.046Z,74.79
2023-04-17T14:28:23.487Z,74.84
2023-04-17T14:31:26.236Z,74.29
2023-04-17T14:34:29.615Z,74.32
2023-04-17T14:37:34.018Z,74.56
2023-04-17T14:40:37.062Z,75.17
2023-04-17T14:43:39.854Z,75.50
2023-04-17T14:46:43.045Z,76.69
2023-04-17T14:49:45.981Z,78.31
2023-04-17T14:52:48.877Z,79.31
2023-04-17T14:55:53.122Z,80.26
2023-04-17T14:58:55.972Z,80.62
2023-04-17T15:02:24.093Z,80.86
2023-04-17T15:05:27.074Z,81.21
2023-04-17T15:08:31.296Z,81.27
2023-04-17T15:11:34.030Z,81.26
2023-04-17T15:14:36.768Z,81.22
2023-04-17T15:17:39.649Z,81.39
2023-04-17T15:20:42.472Z,81.62
2023-04-17T15:23:45.214Z,81.72
2023-04-17T15:26:49.645Z,81.70
2023-04-17T15:29:52.716Z,81.63
2023-04-17T15:32:55.605Z,81.88
2023-04-17T15:35:59.348Z,81.96
2023-04-17T15:39:02.283Z,81.85
2023-04-17T15:42:09.820Z,81.90
2023-04-17T15:45:12.650Z,81.89
2023-04-17T15:48:18.282Z,82.05
2023-04-17T15:51:21.896Z,82.16
2023-04-17T15:54:24.909Z,82.25
2023-04-17T15:57:27.794Z,82.36
2023-04-17T16:00:31.110Z,82.39
2023-04-17T16:03:33.994Z,82.61
2023-04-17T16:06:36.820Z,82.59
2023-04-17T16:09:40.246Z,82.62
2023-04-17T16:12:44.126Z,82.72
2023-04-17T16:15:46.992Z,82.77
2023-04-17T16:18:49.917Z,82.80
2023-04-17T16:21:52.741Z,82.79
2023-04-17T16:24:55.472Z,82.97
2023-04-17T16:27:58.298Z,83.15
2023-04-17T16:31:01.309Z,83.39
2023-04-17T16:34:04.244Z,83.41
2023-04-17T16:37:07.024Z,83.67
2023-04-17T16:40:11.695Z,83.73
2023-04-17T16:43:14.550Z,83.87
2023-04-17T16:46:23.732Z,83.86
2023-04-17T16:49:27.676Z,83.93
2023-04-17T16:52:30.484Z,84.04
2023-04-17T16:55:33.401Z,84.11
2023-04-17T16:58:36.220Z,84.24
2023-04-17T17:01:39.451Z,84.45
2023-04-17T17:04:44.845Z,84.30
2023-04-17T17:07:48.560Z,84.41
2023-04-17T17:10:51.744Z,84.46
2023-04-17T17:13:54.506Z,84.36
2023-04-17T17:16:57.475Z,84.51
2023-04-17T17:20:00.328Z,84.44
2023-04-17T17:23:03.529Z,84.44
2023-04-17T17:26:07.010Z,84.56
2023-04-17T17:29:09.757Z,84.60
2023-04-17T17:32:14.240Z,84.62
2023-04-17T17:35:17.272Z,84.57
2023-04-17T17:38:20.566Z,84.54
2023-04-17T17:41:24.220Z,84.76
2023-04-17T17:44:26.995Z,84.76
2023-04-17T17:47:30.393Z,84.69
2023-04-17T17:50:33.426Z,84.60
2023-04-17T17:53:36.536Z,84.73
2023-04-17T17:56:39.490Z,84.84
2023-04-17T17:59:42.856Z,84.93
2023-04-17T18:02:46.144Z,84.93
2023-04-17T18:05:49.650Z,84.79
2023-04-17T18:08:53.000Z,84.88
2023-04-17T18:11:55.801Z,85.11
2023-04-17T18:14:58.641Z,85.06
2023-04-17T18:18:01.529Z,85.07
2023-04-17T18:21:08.948Z,85.16
2023-04-17T18:24:11.953Z,85.05
2023-04-17T18:27:15.247Z,85.28
2023-04-17T18:30:18.222Z,85.21
2023-04-17T18:33:21.192Z,85.27
2023-04-17T18:36:23.963Z,85.31
2023-04-17T18:39:26.824Z,85.37
2023-04-17T18:42:30.108Z,85.47
2023-04-17T18:45:33.085Z,85.61
2023-04-17T18:48:36.534Z,85.64
2023-04-17T18:51:39.426Z,85.70
2023-04-17T18:54:42.600Z,85.64
2023-04-17T18:57:45.845Z,85.55
2023-04-17T19:00:48.933Z,85.22
2023-04-17T19:03:53.093Z,85.01
2023-04-17T19:06:58.144Z,84.79
2023-04-17T19:10:01.125Z,84.90
2023-04-17T19:13:09.867Z,85.00
2023-04-17T19:16:13.190Z,84.84
2023-04-17T19:19:16.296Z,84.65
2023-04-17T19:22:19.139Z,84.41
2023-04-17T19:25:21.900Z,84.20
2023-04-17T19:28:26.115Z,83.90
2023-04-17T19:31:29.258Z,83.83
2023-04-17T19:34:32.525Z,83.81
2023-04-17T19:37:35.873Z,83.62
2023-04-17T19:40:39.187Z,83.61
2023-04-17T19:43:42.592Z,83.32
2023-04-17T19:46:45.449Z,83.29
2023-04-17T19:49:48.774Z,83.07
2023-04-17T19:52:51.509Z,82.73
2023-04-17T19:55:54.607Z,82.50
2023-04-17T19:59:01.798Z,82.47
2023-04-17T20:02:04.812Z,82.17
2023-04-17T20:05:09.137Z,82.09
2023-04-17T20:08:11.939Z,82.13
2023-04-17T20:11:15.907Z,82.32
2023-04-17T20:14:19.676Z,82.27
2023-04-17T20:17:22.605Z,82.56
2023-04-17T20:20:25.525Z,82.65
2023-04-17T20:23:28.508Z,82.63
2023-04-17T20:26:31.251Z,82.86
2023-04-17T20:29:34.056Z,82.76
2023-04-17T20:32:36.917Z,82.76
2023-04-17T20:35:39.832Z,82.77
2023-04-17T20:38:42.571Z,82.97
2023-04-17T20:41:47.539Z,83.06
2023-04-17T20:44:50.443Z,83.23
2023-04-17T20:47:57.004Z,83.13
2023-04-17T20:51:05.973Z,83.15
2023-04-17T20:54:08.874Z,83.62
2023-04-17T20:57:11.645Z,83.43
2023-04-17T21:00:15.031Z,83.53
2023-04-17T21:03:18.038Z,83.38
2023-04-17T21:06:22.910Z,83.48
2023-04-17T21:09:27.879Z,83.49
2023-04-17T21:12:32.979Z,83.61
2023-04-17T21:15:36.164Z,83.90
2023-04-17T21:18:39.448Z,83.83
2023-04-17T21:21:42.248Z,83.62
2023-04-17T21:24:45.137Z,83.95
2023-04-17T21:27:47.872Z,84.11
2023-04-17T21:30:50.772Z,84.49
2023-04-17T21:33:53.536Z,84.52
2023-04-17T21:36:58.389Z,84.65
2023-04-17T21:40:01.109Z,84.96
2023-04-17T21:43:04.403Z,85.09
2023-04-17T21:46:11.388Z,85.07
2023-04-17T21:49:14.278Z,85.27
2023-04-17T21:52:17.076Z,85.39
2023-04-17T21:55:19.972Z,85.59
2023-04-17T21:58:22.944Z,85.62
2023-04-17T22:01:25.760Z,85.82
2023-04-17T22:04:28.858Z,86.13
2023-04-17T22:07:38.138Z,86.17
2023-04-17T22:10:46.696Z,86.63
2023-04-17T22:13:49.448Z,86.98
2023-04-17T22:16:52.762Z,86.90
2023-04-17T22:19:55.887Z,86.57
2023-04-17T22:22:58.791Z,86.86
2023-04-17T22:26:01.490Z,87.03
2023-04-17T22:29:04.247Z,87.12
2023-04-17T22:32:06.999Z,87.10
2023-04-17T22:35:09.839Z,87.26
2023-04-17T22:38:12.583Z,87.23
2023-04-17T22:41:15.435Z,87.43
2023-04-17T22:44:18.234Z,87.45
2023-04-17T22:47:21.799Z,87.48
2023-04-17T22:50:24.709Z,87.67
2023-04-17T22:53:27.625Z,87.81
2023-04-17T22:56:30.359Z,87.68
2023-04-17T22:59:33.216Z,87.94
2023-04-17T23:02:36.662Z,88.02
2023-04-17T23:05:39.448Z,88.12
2023-04-17T23:08:42.128Z,88.15
2023-04-17T23:11:44.815Z,88.48
2023-04-17T23:14:48.502Z,88.49
2023-04-17T23:17:51.267Z,88.47
2023-04-17T23:20:54.155Z,88.46
2023-04-17T23:23:56.869Z,88.62
2023-04-17T23:27:00.158Z,88.53
2023-04-17T23:30:03.642Z,88.67
2023-04-17T23:33:06.461Z,88.55
2023-04-17T23:36:09.317Z,88.53
2023-04-17T23:39:12.160Z,88.56
2023-04-17T23:42:15.982Z,88.69
2023-04-17T23:45:18.915Z,88.48
2023-04-17T23:48:21.869Z,89.00
2023-04-17T23:51:24.666Z,88.61
2023-04-17T23:54:27.386Z,88.67
2023-04-17T23:57:30.493Z,88.67
